Time;durP1;ratioP1;P1;durP2;ratioP2;P2;SDS_P1;SDS_P2;PMS_P1;PMS_P2;Temp;Humidity;BMP_temperature;BMP_pressure;BME280_temperature;BME280_humidity;BME280_pressure;Samples;Min_cycle;Max_cycle;Signal;HPM_P1;HPM_P2
2021/07/20 00:01:35;;;;;;;11.05;7.97;;;25.40;80.20;;;;;;5035669;28;20053;-63
2021/07/20 00:04:01;;;;;;;12.10;8.48;;;25.30;80.30;;;;;;5034245;28;20094;-63
2021/07/20 00:06:27;;;;;;;11.02;8.00;;;25.30;80.40;;;;;;5034220;28;20124;-63
2021/07/20 00:08:52;;;;;;;11.52;8.05;;;25.30;80.40;;;;;;5035190;28;20025;-63
2021/07/20 00:11:18;;;;;;;12.65;9.10;;;25.30;80.50;;;;;;5033534;28;20029;-63
2021/07/20 00:13:44;;;;;;;11.10;8.23;;;25.30;80.50;;;;;;5031461;28;20482;-63
2021/07/20 00:16:10;;;;;;;13.20;9.00;;;25.30;80.60;;;;;;5046836;28;20036;-64
2021/07/20 00:18:37;;;;;;;15.02;8.88;;;25.20;80.70;;;;;;5051977;28;20065;-63
2021/07/20 00:21:05;;;;;;;11.52;8.77;;;25.20;80.70;;;;;;5043803;28;20045;-63
2021/07/20 00:23:32;;;;;;;9.93;7.88;;;25.20;80.90;;;;;;5046724;28;20033;-63
2021/07/20 00:25:58;;;;;;;10.77;8.35;;;25.20;81.10;;;;;;5040324;28;20045;-63
2021/07/20 00:28:24;;;;;;;11.07;8.07;;;25.20;81.00;;;;;;5054543;28;20021;-63
2021/07/20 00:30:51;;;;;;;11.70;7.68;;;25.20;81.20;;;;;;5054429;28;20021;-63
2021/07/20 00:33:17;;;;;;;14.18;8.98;;;25.20;81.40;;;;;;5054452;28;20378;-63
2021/07/20 00:35:43;;;;;;;11.52;8.63;;;25.20;81.00;;;;;;5034987;28;20079;-63
2021/07/20 00:38:11;;;;;;;10.05;8.27;;;25.20;80.90;;;;;;5047662;28;20469;-63
2021/07/20 00:40:37;;;;;;;14.93;8.75;;;25.20;81.10;;;;;;5036927;28;20462;-63
2021/07/20 00:43:06;;;;;;;13.00;8.98;;;25.20;81.10;;;;;;5040068;28;20104;-63
2021/07/20 00:45:33;;;;;;;13.88;9.23;;;25.20;81.10;;;;;;5054064;28;20021;-63
2021/07/20 00:47:59;;;;;;;12.82;8.52;;;25.10;81.20;;;;;;5053529;28;20071;-63
2021/07/20 00:50:31;;;;;;;14.32;9.13;;;25.10;81.20;;;;;;5054270;28;20025;-63
2021/07/20 00:52:57;;;;;;;11.77;8.15;;;25.10;81.20;;;;;;5053092;28;20021;-63
2021/07/20 00:55:23;;;;;;;14.77;8.93;;;25.10;81.10;;;;;;5050413;28;20032;-63
2021/07/20 00:57:52;;;;;;;16.13;9.10;;;25.00;81.10;;;;;;5046082;28;20033;-63
2021/07/20 01:00:19;;;;;;;9.93;8.60;;;25.10;81.30;;;;;;5054059;28;20029;-63
2021/07/20 01:02:46;;;;;;;13.05;8.90;;;25.00;81.20;;;;;;5046882;28;20125;-63
2021/07/20 01:05:18;;;;;;;12.48;8.98;;;25.00;81.30;;;;;;5035905;28;20271;-63
2021/07/20 01:07:45;;;;;;;13.45;8.50;;;25.00;81.30;;;;;;5044907;28;20037;-63
2021/07/20 01:10:12;;;;;;;11.57;8.75;;;25.00;81.40;;;;;;5035213;28;20363;-63
2021/07/20 01:12:40;;;;;;;12.38;9.02;;;25.00;81.00;;;;;;5032447;28;20032;-63
2021/07/20 01:15:08;;;;;;;12.65;8.73;;;25.00;81.10;;;;;;5031630;28;20033;-63
2021/07/20 01:17:36;;;;;;;10.90;8.27;;;25.00;81.10;;;;;;5053168;28;20028;-63
2021/07/20 01:20:07;;;;;;;13.35;8.98;;;25.00;81.00;;;;;;5050143;28;20063;-63
2021/07/20 01:22:33;;;;;;;;;;;25.00;81.30;;;;;;5051569;28;20087;-63
2021/07/20 01:25:11;;;;;;;15.55;8.48;;;24.90;80.90;;;;;;5045715;28;19905;-63
2021/07/20 01:27:47;;;;;;;11.50;8.27;;;25.00;81.10;;;;;;5035410;28;20689;-63
2021/07/20 01:30:14;;;;;;;11.90;8.80;;;25.00;81.20;;;;;;5033630;28;20405;-63
2021/07/20 01:32:41;;;;;;;13.18;8.32;;;24.90;80.80;;;;;;5036915;28;20027;-63
2021/07/20 01:35:09;;;;;;;12.10;8.35;;;24.90;81.40;;;;;;5040711;28;20029;-63
2021/07/20 01:37:37;;;;;;;11.00;8.68;;;24.90;80.60;;;;;;5052282;28;20027;-63
2021/07/20 01:40:04;;;;;;;10.43;7.97;;;24.90;81.20;;;;;;5026457;28;20029;-63
2021/07/20 01:42:31;;;;;;;12.50;8.30;;;24.90;80.70;;;;;;5040762;28;20392;-63
2021/07/20 01:44:57;;;;;;;10.88;8.18;;;24.90;80.80;;;;;;5034948;28;20029;-63
2021/07/20 01:47:28;;;;;;;12.88;8.40;;;24.90;81.20;;;;;;5053007;28;20465;-63
2021/07/20 01:49:57;;;;;;;8.73;7.78;;;24.90;81.20;;;;;;5043730;28;20056;-63
2021/07/20 01:52:25;;;;;;;10.73;7.68;;;24.90;81.10;;;;;;5048022;28;20029;-63
2021/07/20 01:54:51;;;;;;;12.43;7.50;;;24.90;81.00;;;;;;5041918;28;20112;-63
2021/07/20 01:57:18;;;;;;;12.60;7.90;;;24.90;81.10;;;;;;5033121;28;20132;-63
2021/07/20 01:59:45;;;;;;;10.80;7.43;;;24.90;81.30;;;;;;5039024;28;20035;-63
2021/07/20 02:02:30;;;;;;;13.65;8.00;;;24.90;81.40;;;;;;5052868;28;20024;-63
2021/07/20 02:10:29;;;;;;;9.48;7.78;;;24.90;81.70;;;;;;5037262;28;20075;-63
2021/07/20 02:12:57;;;;;;;11.07;7.63;;;24.90;81.60;;;;;;5025612;28;20025;-63
2021/07/20 02:15:24;;;;;;;10.30;7.38;;;24.90;81.40;;;;;;5041353;28;20413;-63
2021/07/20 02:17:52;;;;;;;10.60;7.18;;;24.80;81.50;;;;;;5052859;28;20028;-63
2021/07/20 02:20:22;;;;;;;9.98;7.43;;;24.90;81.50;;;;;;5036454;28;20494;-64
2021/07/20 02:22:51;;;;;;;12.47;7.40;;;24.80;81.30;;;;;;5032786;28;20017;-63
2021/07/20 02:25:18;;;;;;;9.00;6.60;;;24.90;81.50;;;;;;5033930;28;20029;-63
2021/07/20 02:27:44;;;;;;;10.77;7.55;;;24.90;81.50;;;;;;5052859;28;20159;-63
2021/07/20 02:30:13;;;;;;;12.23;7.82;;;24.90;81.50;;;;;;5053147;28;20147;-63
2021/07/20 02:32:40;;;;;;;13.77;8.23;;;24.90;81.70;;;;;;5052849;28;20032;-63
2021/07/20 02:35:10;;;;;;;10.82;8.15;;;24.90;81.90;;;;;;5041278;28;20017;-63
2021/07/20 02:37:38;;;;;;;11.32;8.35;;;24.90;81.90;;;;;;5032908;28;20033;-63
2021/07/20 02:40:05;;;;;;;8.55;7.38;;;24.90;81.90;;;;;;5031600;28;20030;-63
2021/07/20 02:42:33;;;;;;;11.30;8.32;;;24.90;82.00;;;;;;5028653;28;20026;-63
2021/07/20 02:45:01;;;;;;;10.93;8.30;;;24.90;82.10;;;;;;5032520;28;20030;-63
2021/07/20 02:47:27;;;;;;;10.98;8.07;;;25.00;82.10;;;;;;5032666;28;20035;-63
2021/07/20 02:49:54;;;;;;;12.48;8.50;;;25.00;82.10;;;;;;5033091;28;20025;-63
2021/07/20 02:52:21;;;;;;;10.80;9.13;;;25.00;82.00;;;;;;5032655;28;20029;-63
2021/07/20 02:54:47;;;;;;;14.77;8.32;;;25.00;81.90;;;;;;5031956;28;20022;-63
2021/07/20 02:57:15;;;;;;;11.00;7.88;;;25.10;82.10;;;;;;5026011;28;20044;-63
2021/07/20 02:59:43;;;;;;;10.48;7.80;;;25.10;81.70;;;;;;5032599;28;20060;-63
2021/07/20 03:02:09;;;;;;;11.60;8.05;;;25.10;81.60;;;;;;5032312;28;20080;-63
2021/07/20 03:04:35;;;;;;;12.18;8.43;;;25.20;81.70;;;;;;5030967;28;20074;-63
2021/07/20 03:07:05;;;;;;;12.82;8.15;;;25.20;81.50;;;;;;5030820;28;20029;-63
2021/07/20 03:09:33;;;;;;;13.50;8.45;;;25.20;81.30;;;;;;5015180;28;20037;-63
2021/07/20 03:12:02;;;;;;;12.55;7.78;;;25.20;81.20;;;;;;5021356;28;20029;-63
2021/07/20 03:14:30;;;;;;;9.77;8.05;;;25.30;80.90;;;;;;5029283;28;20025;-63
2021/07/20 03:16:57;;;;;;;9.57;7.38;;;25.40;80.70;;;;;;5034519;28;20029;-63
2021/07/20 03:19:26;;;;;;;10.05;7.30;;;25.50;80.60;;;;;;5036275;28;20036;-63
2021/07/20 03:21:54;;;;;;;10.15;7.88;;;25.50;80.00;;;;;;5036345;28;20063;-64
2021/07/20 03:24:24;;;;;;;9.25;6.90;;;25.60;79.70;;;;;;5035145;28;20107;-63
2021/07/20 03:26:52;;;;;;;9.63;6.88;;;25.70;79.10;;;;;;5037083;28;20119;-63
2021/07/20 03:29:21;;;;;;;9.93;7.30;;;25.80;79.00;;;;;;5040223;28;20404;-63
2021/07/20 03:31:48;;;;;;;11.00;6.95;;;25.90;78.80;;;;;;5035583;28;20572;-63
2021/07/20 03:34:14;;;;;;;10.05;6.93;;;26.10;78.70;;;;;;5035793;28;20111;-63
2021/07/20 03:36:40;;;;;;;9.45;6.72;;;26.20;78.30;;;;;;5035748;28;20049;-64
2021/07/20 03:39:06;;;;;;;11.38;7.63;;;26.40;78.20;;;;;;5035549;28;20053;-63
2021/07/20 03:41:33;;;;;;;9.90;7.50;;;26.50;77.60;;;;;;5034594;28;20033;-64
2021/07/20 03:44:00;;;;;;;11.65;6.72;;;26.70;77.30;;;;;;5035583;28;20029;-64
2021/07/20 03:46:26;;;;;;;10.80;6.80;;;26.90;76.70;;;;;;5045975;28;20120;-64
2021/07/20 03:48:52;;;;;;;8.20;7.13;;;27.10;76.10;;;;;;5044353;28;20036;-64
2021/07/20 03:51:22;;;;;;;8.77;6.80;;;27.40;76.00;;;;;;5055582;28;20025;-64
2021/07/20 03:53:49;;;;;;;11.73;6.57;;;27.80;75.20;;;;;;5046252;28;20022;-64
2021/07/20 03:56:15;;;;;;;9.50;6.80;;;28.20;74.20;;;;;;5055728;28;20039;-64
2021/07/20 03:58:42;;;;;;;12.13;7.50;;;28.70;72.70;;;;;;5051127;28;20064;-64
2021/07/20 04:01:10;;;;;;;8.90;6.55;;;29.20;70.90;;;;;;5038312;28;20016;-64
2021/07/20 04:03:38;;;;;;;7.53;6.35;;;29.90;69.60;;;;;;5055584;28;20029;-64
2021/07/20 04:06:09;;;;;;;9.07;6.68;;;30.50;67.50;;;;;;5043391;28;20043;-64
2021/07/20 04:08:38;;;;;;;8.93;6.18;;;31.20;65.80;;;;;;5046723;28;20071;-64
2021/07/20 04:11:04;;;;;;;8.90;6.35;;;31.80;64.20;;;;;;5031166;28;20026;-64
2021/07/20 04:13:31;;;;;;;9.52;6.57;;;32.40;62.80;;;;;;5046957;28;20401;-64
2021/07/20 04:16:00;;;;;;;8.05;5.47;;;32.90;61.40;;;;;;5045363;28;20116;-64
2021/07/20 04:18:28;;;;;;;9.07;6.07;;;33.40;60.10;;;;;;5055011;28;20053;-64
2021/07/20 04:20:55;;;;;;;8.43;5.75;;;33.90;59.20;;;;;;5044071;28;20505;-64
2021/07/20 04:23:21;;;;;;;8.80;5.97;;;34.40;58.00;;;;;;5035212;28;20040;-61
2021/07/20 04:25:48;;;;;;;9.73;6.50;;;34.80;57.00;;;;;;5046777;28;20028;-61
2021/07/20 04:28:18;;;;;;;10.43;5.93;;;35.10;56.10;;;;;;5038455;28;20371;-61
2021/07/20 04:30:45;;;;;;;8.25;5.60;;;35.20;55.20;;;;;;5042315;28;20104;-61
2021/07/20 04:33:14;;;;;;;8.80;5.60;;;35.30;55.00;;;;;;5054382;28;20082;-61
2021/07/20 04:35:43;;;;;;;8.10;5.78;;;35.60;54.30;;;;;;5046942;28;20104;-61
2021/07/20 04:38:13;;;;;;;;;;;36.00;53.90;;;;;;5028254;28;20036;-61
2021/07/20 04:40:42;;;;;;;10.20;5.78;;;36.30;54.40;;;;;;5038569;28;19909;-61
2021/07/20 04:43:08;;;;;;;8.00;5.93;;;36.70;53.50;;;;;;5054370;28;20103;-61
2021/07/20 04:45:35;;;;;;;7.70;5.80;;;37.20;52.40;;;;;;5054388;28;20037;-61
2021/07/20 04:48:01;;;;;;;7.78;6.30;;;37.70;51.60;;;;;;5053216;28;20451;-61
2021/07/20 04:50:27;;;;;;;8.57;5.13;;;38.10;51.00;;;;;;5053821;28;20100;-61
2021/07/20 04:52:54;;;;;;;8.13;5.72;;;38.50;50.30;;;;;;5042557;28;20026;-62
2021/07/20 04:55:22;;;;;;;8.98;6.38;;;38.80;49.60;;;;;;5032026;28;20040;-62
2021/07/20 04:57:47;;;;;;;7.70;5.38;;;39.10;49.20;;;;;;5022946;28;20734;-62
2021/07/20 05:00:13;;;;;;;8.23;5.32;;;39.40;48.60;;;;;;5032183;28;20109;-62
2021/07/20 05:02:43;;;;;;;9.13;6.03;;;39.50;48.40;;;;;;5029443;28;20098;-62
2021/07/20 05:05:13;;;;;;;8.32;5.13;;;39.60;47.80;;;;;;5017668;28;20029;-62
2021/07/20 05:07:40;;;;;;;10.40;5.60;;;39.70;47.30;;;;;;5017601;28;20099;-62
2021/07/20 05:10:06;;;;;;;8.50;5.88;;;39.80;47.20;;;;;;5021392;28;20052;-62
2021/07/20 05:12:32;;;;;;;7.47;5.35;;;39.90;47.00;;;;;;5021088;28;20021;-62
2021/07/20 05:14:58;;;;;;;8.00;5.22;;;40.10;47.30;;;;;;5020767;28;20037;-62
2021/07/20 05:17:24;;;;;;;8.60;5.63;;;40.10;46.40;;;;;;5032927;28;20029;-62
2021/07/20 05:19:51;;;;;;;6.80;5.65;;;40.30;46.00;;;;;;5035108;28;20381;-62
2021/07/20 05:22:20;;;;;;;8.35;5.60;;;40.50;46.40;;;;;;5038170;28;20025;-62
2021/07/20 05:24:46;;;;;;;8.90;5.75;;;40.70;45.40;;;;;;5027405;28;20099;-62
2021/07/20 05:27:13;;;;;;;7.15;5.22;;;40.80;45.20;;;;;;5021944;28;20470;-62
2021/07/20 05:29:40;;;;;;;7.32;5.50;;;40.90;44.40;;;;;;5020031;28;20022;-62
2021/07/20 05:32:06;;;;;;;6.68;5.10;;;40.80;44.10;;;;;;5022795;28;20905;-62
2021/07/20 05:34:33;;;;;;;8.20;5.07;;;40.60;44.10;;;;;;5021441;28;20035;-62
2021/07/20 05:36:59;;;;;;;7.00;5.50;;;40.00;44.30;;;;;;5020034;28;20032;-62
2021/07/20 05:39:25;;;;;;;7.15;4.78;;;39.30;45.00;;;;;;5021323;28;20155;-62
2021/07/20 05:41:51;;;;;;;8.45;5.00;;;38.60;45.90;;;;;;5021379;28;20116;-62
2021/07/20 05:44:21;;;;;;;7.20;5.18;;;37.80;46.90;;;;;;5017284;28;20055;-62
2021/07/20 05:46:48;;;;;;;7.68;5.53;;;37.00;47.90;;;;;;5015831;28;20044;-62
2021/07/20 05:49:15;;;;;;;6.50;5.07;;;36.30;48.90;;;;;;5013278;28;20160;-62
2021/07/20 05:51:42;;;;;;;7.32;5.85;;;35.70;50.50;;;;;;5009156;28;20080;-62
2021/07/20 05:54:08;;;;;;;8.55;6.10;;;35.20;50.50;;;;;;5018139;28;20025;-61
2021/07/20 05:56:35;;;;;;;8.57;5.50;;;34.60;51.20;;;;;;5011027;28;20492;-61
2021/07/20 05:59:02;;;;;;;9.07;5.32;;;34.20;51.70;;;;;;5015679;28;20106;-61
2021/07/20 06:01:31;;;;;;;7.05;5.32;;;33.80;53.10;;;;;;5022614;28;20053;-61
2021/07/20 06:03:59;;;;;;;8.85;5.55;;;33.50;53.10;;;;;;5016906;28;20021;-61
2021/07/20 06:06:27;;;;;;;7.30;5.28;;;33.20;54.00;;;;;;5006625;28;20060;-61
2021/07/20 06:08:54;;;;;;;7.68;5.50;;;32.90;54.50;;;;;;5017352;28;20113;-61
2021/07/20 06:11:21;;;;;;;7.75;5.88;;;32.70;55.10;;;;;;5015117;28;20355;-62
2021/07/20 06:13:47;;;;;;;9.13;5.47;;;32.50;55.70;;;;;;5020501;28;20034;-61
2021/07/20 06:16:13;;;;;;;8.35;5.90;;;32.30;56.00;;;;;;5014226;28;20029;-62
2021/07/20 06:18:39;;;;;;;7.18;5.70;;;32.10;56.50;;;;;;5012347;28;20021;-61
2021/07/20 06:21:09;;;;;;;9.48;5.70;;;31.90;57.20;;;;;;5016365;28;20413;-61
2021/07/20 06:23:44;;;;;;;12.18;5.82;;;31.80;56.90;;;;;;5011068;28;20033;-61
2021/07/20 06:26:15;;;;;;;8.93;5.55;;;31.60;57.30;;;;;;5013453;28;20029;-62
2021/07/20 06:28:41;;;;;;;8.38;6.45;;;31.50;57.70;;;;;;5015141;28;20088;-60
2021/07/20 06:31:08;;;;;;;9.98;6.22;;;31.30;58.00;;;;;;5011654;28;20038;-61
2021/07/20 06:33:35;;;;;;;10.10;6.18;;;31.30;58.20;;;;;;5012556;28;20460;-60
2021/07/20 06:36:02;;;;;;;9.70;6.68;;;31.20;58.80;;;;;;5008483;28;20041;-61
2021/07/20 06:38:29;;;;;;;8.60;5.75;;;31.10;59.20;;;;;;5016478;28;20758;-60
2021/07/20 06:40:55;;;;;;;8.88;5.88;;;31.00;59.20;;;;;;5018702;28;20393;-60
2021/07/20 06:43:22;;;;;;;12.77;6.43;;;31.00;59.20;;;;;;5010288;28;20037;-60
2021/07/20 06:45:49;;;;;;;8.18;5.88;;;30.90;59.30;;;;;;5014717;28;20083;-61
2021/07/20 06:48:18;;;;;;;8.55;6.00;;;30.90;59.60;;;;;;5012836;28;20041;-61
2021/07/20 06:50:46;;;;;;;10.93;6.43;;;30.80;59.80;;;;;;5015170;28;20021;-61
2021/07/20 06:53:12;;;;;;;9.13;5.53;;;30.80;60.20;;;;;;5016178;28;20037;-60
2021/07/20 06:55:46;;;;;;;10.80;6.35;;;30.70;60.40;;;;;;5013864;28;20418;-60
2021/07/20 06:58:13;;;;;;;8.10;6.03;;;30.70;60.40;;;;;;5009429;28;20109;-63
2021/07/20 07:00:46;;;;;;;9.38;7.38;;;30.70;60.60;;;;;;5012920;28;20029;-62
2021/07/20 07:03:14;;;;;;;8.85;6.57;;;30.60;60.80;;;;;;5006822;28;20017;-62
2021/07/20 07:05:41;;;;;;;10.18;6.32;;;30.60;60.80;;;;;;5006977;28;20033;-62
2021/07/20 07:08:07;;;;;;;9.30;6.43;;;30.50;60.70;;;;;;5009438;28;20030;-63
2021/07/20 07:10:34;;;;;;;11.05;6.65;;;30.50;60.90;;;;;;5010830;28;20022;-62
2021/07/20 07:13:05;;;;;;;8.82;6.18;;;30.50;60.90;;;;;;5008933;28;20037;-61
2021/07/20 07:15:31;;;;;;;9.70;6.45;;;30.50;61.00;;;;;;5012509;28;20128;-61
2021/07/20 07:17:58;;;;;;;9.70;6.28;;;30.40;60.90;;;;;;5012236;28;20057;-61
2021/07/20 07:20:27;;;;;;;9.35;6.97;;;30.40;60.90;;;;;;5012754;28;20173;-62
2021/07/20 07:22:54;;;;;;;9.00;6.63;;;30.40;61.00;;;;;;5014202;28;20593;-64
2021/07/20 07:25:21;;;;;;;8.27;6.63;;;30.30;61.30;;;;;;5009933;28;20083;-64
2021/07/20 07:27:47;;;;;;;8.43;6.18;;;30.30;62.40;;;;;;5015043;28;20425;-63
2021/07/20 07:30:15;;;;;;;10.32;6.45;;;30.30;61.70;;;;;;5014424;28;20421;-64
2021/07/20 07:32:41;;;;;;;8.85;6.65;;;30.20;61.40;;;;;;5015793;28;21100;-64
2021/07/20 07:35:09;;;;;;;10.68;6.80;;;30.20;61.40;;;;;;5011918;28;20121;-64
2021/07/20 07:37:35;;;;;;;10.38;6.22;;;30.20;61.60;;;;;;5015093;28;20478;-64
2021/07/20 07:40:05;;;;;;;7.53;5.90;;;30.10;61.70;;;;;;5017522;28;20041;-65
2021/07/20 07:42:34;;;;;;;10.05;5.95;;;30.20;61.90;;;;;;5017301;28;20056;-64
2021/07/20 07:45:01;;;;;;;8.88;6.72;;;30.10;62.20;;;;;;5014417;28;20037;-64
2021/07/20 07:47:27;;;;;;;9.02;6.78;;;30.20;61.50;;;;;;5013216;28;20033;-65
2021/07/20 07:49:53;;;;;;;9.23;6.28;;;30.10;62.00;;;;;;5014323;28;20034;-63
2021/07/20 07:52:19;;;;;;;9.98;7.22;;;30.10;62.00;;;;;;5006975;28;20119;-63
2021/07/20 07:54:46;;;;;;;11.70;7.03;;;30.10;62.20;;;;;;5003977;28;20052;-64
2021/07/20 07:57:15;;;;;;;10.68;6.60;;;30.10;62.30;;;;;;5007149;28;20132;-63
2021/07/20 07:59:42;;;;;;;9.30;6.10;;;30.10;62.70;;;;;;5008241;28;20037;-61
2021/07/20 08:02:11;;;;;;;8.13;6.32;;;30.10;62.40;;;;;;5009043;28;20065;-63
2021/07/20 08:04:41;;;;;;;9.90;6.47;;;30.10;62.50;;;;;;5010279;28;20064;-62
2021/07/20 08:07:07;;;;;;;;;;;30.10;62.70;;;;;;5003394;28;20291;-62
2021/07/20 08:09:34;;;;;;;7.18;6.10;;;30.10;62.60;;;;;;5011878;28;19935;-62
2021/07/20 08:12:01;;;;;;;8.95;6.88;;;30.10;62.40;;;;;;5011374;28;20107;-62
2021/07/20 08:14:28;;;;;;;8.50;6.40;;;30.00;62.40;;;;;;5010494;28;21022;-62
2021/07/20 08:17:02;;;;;;;12.90;7.22;;;30.00;62.50;;;;;;5004523;28;20033;-63
2021/07/20 08:19:31;;;;;;;9.27;6.43;;;30.00;62.70;;;;;;5010346;28;20087;-64
2021/07/20 08:22:00;;;;;;;9.63;6.70;;;30.00;63.40;;;;;;5011218;28;20889;-60
2021/07/20 08:24:29;;;;;;;9.00;6.18;;;30.00;62.50;;;;;;5011438;28;20039;-64
2021/07/20 08:27:03;;;;;;;7.80;5.75;;;30.10;62.70;;;;;;5013190;28;20029;-61
2021/07/20 08:29:34;;;;;;;8.57;6.13;;;30.10;62.30;;;;;;5012103;28;20033;-62
2021/07/20 08:32:07;;;;;;;7.72;6.03;;;30.10;62.30;;;;;;4994482;28;20026;-62
2021/07/20 08:34:34;;;;;;;7.35;6.22;;;30.10;62.00;;;;;;5011440;28;20024;-63
2021/07/20 08:37:02;;;;;;;10.38;7.20;;;30.20;62.10;;;;;;5004151;28;20033;-62
2021/07/20 08:39:30;;;;;;;7.28;6.50;;;30.20;62.10;;;;;;5009231;28;20082;-63
2021/07/20 08:42:26;;;;;;;13.55;7.07;;;30.20;61.80;;;;;;5010778;28;20038;-62
2021/07/20 08:44:52;;;;;;;6.80;5.75;;;30.30;61.80;;;;;;5008792;28;20041;-63
2021/07/20 08:47:40;;;;;;;7.50;5.72;;;30.30;61.60;;;;;;5016670;28;20888;-64
2021/07/20 08:50:33;;;;;;;8.02;5.55;;;30.40;61.40;;;;;;5010706;28;20113;-64
2021/07/20 08:53:17;;;;;;;7.25;5.82;;;30.40;61.20;;;;;;5008335;28;20030;-64
2021/07/20 08:55:46;;;;;;;9.38;6.00;;;30.40;61.00;;;;;;5011303;28;20061;-64
2021/07/20 08:58:17;;;;;;;9.40;6.60;;;30.40;60.80;;;;;;5011617;28;20037;-64
2021/07/20 09:00:47;;;;;;;9.48;6.00;;;30.40;60.70;;;;;;5008485;28;20059;-63
2021/07/20 09:03:34;;;;;;;9.10;5.47;;;30.40;60.40;;;;;;5009672;28;20211;-63
2021/07/20 09:06:07;;;;;;;7.28;5.32;;;30.40;60.40;;;;;;5011112;28;20033;-63
2021/07/20 09:08:37;;;;;;;7.95;5.72;;;30.50;60.30;;;;;;5010300;28;20021;-64
2021/07/20 09:11:09;;;;;;;8.57;6.05;;;30.50;60.00;;;;;;5008237;28;20041;-63
2021/07/20 09:13:37;;;;;;;6.72;5.25;;;30.60;59.80;;;;;;5010438;28;20030;-62
2021/07/20 09:16:22;;;;;;;8.20;5.22;;;30.60;59.80;;;;;;5015501;28;20105;-63
2021/07/20 09:19:12;;;;;;;7.40;5.25;;;30.70;59.70;;;;;;5011206;28;20029;-62
2021/07/20 09:21:43;;;;;;;8.00;5.30;;;30.70;59.30;;;;;;5011062;28;20057;-62
2021/07/20 09:24:14;;;;;;;7.60;4.93;;;30.60;59.10;;;;;;5010115;28;20135;-63
2021/07/20 09:26:46;;;;;;;5.97;4.80;;;30.60;58.90;;;;;;5011607;28;20131;-62
2021/07/20 09:29:19;;;;;;;6.82;5.43;;;30.60;58.90;;;;;;5012548;28;20018;-62
2021/07/20 09:31:51;;;;;;;7.35;4.78;;;30.60;58.80;;;;;;5008169;28;20521;-62
2021/07/20 09:34:31;;;;;;;6.60;5.53;;;30.60;58.60;;;;;;5011819;28;20049;-62
2021/07/20 09:36:59;;;;;;;7.78;5.15;;;30.50;58.50;;;;;;5016160;28;20036;-64
2021/07/20 09:39:43;;;;;;;6.88;4.97;;;30.50;58.40;;;;;;5008959;28;21992;-64
2021/07/20 09:42:39;;;;;;;7.32;5.65;;;30.50;58.50;;;;;;5009895;28;20030;-63
2021/07/20 09:45:21;;;;;;;6.85;4.93;;;30.50;58.50;;;;;;5011400;28;20132;-64
2021/07/20 09:48:00;;;;;;;6.82;5.13;;;30.50;58.40;;;;;;5012106;28;20038;-63
2021/07/20 09:50:29;;;;;;;8.13;5.05;;;30.40;58.30;;;;;;5006420;28;20029;-62
2021/07/20 09:53:27;;;;;;;7.80;5.22;;;30.40;58.20;;;;;;5009717;28;20021;-63
2021/07/20 09:56:25;;;;;;;7.18;4.88;;;30.40;58.30;;;;;;4990038;28;20037;-63
2021/07/20 09:59:06;;;;;;;6.68;5.85;;;30.30;58.50;;;;;;5030135;28;20128;-64
2021/07/20 10:01:45;;;;;;;6.57;5.28;;;30.20;58.40;;;;;;5015117;28;20029;-64
2021/07/20 10:04:28;;;;;;;5.65;4.90;;;30.10;58.70;;;;;;5002948;28;20033;-64
2021/07/20 10:07:06;;;;;;;5.88;4.85;;;30.10;59.00;;;;;;5008071;28;20041;-64
2021/07/20 10:09:48;;;;;;;6.22;5.00;;;30.10;59.20;;;;;;5008226;28;20099;-63
2021/07/20 10:12:35;;;;;;;7.60;5.47;;;30.10;59.70;;;;;;5007215;28;20027;-64
2021/07/20 10:15:09;;;;;;;6.22;5.07;;;30.10;59.00;;;;;;5016635;28;20044;-63
2021/07/20 10:17:39;;;;;;;7.68;5.15;;;30.10;59.10;;;;;;5023467;28;20040;-64
2021/07/20 10:20:27;;;;;;;8.63;5.10;;;30.10;58.90;;;;;;5015673;28;20068;-63
2021/07/20 10:22:52;;;;;;;7.40;4.82;;;30.10;58.80;;;;;;5016368;28;20033;-64
2021/07/20 10:25:24;;;;;;;8.25;5.03;;;30.20;59.00;;;;;;5018956;28;20038;-64
2021/07/20 10:27:57;;;;;;;7.18;4.95;;;30.30;59.10;;;;;;5014548;28;20044;-64
2021/07/20 10:30:25;;;;;;;6.40;5.00;;;30.30;58.80;;;;;;5014903;28;20017;-64
2021/07/20 10:33:13;;;;;;;7.25;5.20;;;30.30;58.70;;;;;;5007231;28;20685;-64
2021/07/20 10:36:03;;;;;;;6.50;5.50;;;30.40;58.70;;;;;;5014391;28;20045;-63
2021/07/20 10:38:42;;;;;;;8.37;5.30;;;30.40;58.60;;;;;;5002826;28;20025;-64
2021/07/20 10:41:12;;;;;;;9.13;5.53;;;30.40;58.50;;;;;;5008983;28;20047;-63
2021/07/20 10:43:45;;;;;;;6.50;5.35;;;30.40;58.80;;;;;;5011256;28;20164;-65
2021/07/20 10:46:14;;;;;;;5.53;4.75;;;30.40;58.70;;;;;;5007721;28;20030;-63
2021/07/20 10:48:45;;;;;;;6.07;4.75;;;30.40;58.60;;;;;;5006589;28;20549;-64
2021/07/20 10:51:18;;;;;;;7.38;5.43;;;30.40;58.40;;;;;;5009416;28;20026;-64
2021/07/20 10:54:09;;;;;;;6.88;5.50;;;30.40;58.60;;;;;;5007759;28;20022;-63
2021/07/20 10:56:41;;;;;;;6.57;4.97;;;30.30;58.50;;;;;;5003720;28;20030;-64
2021/07/20 10:59:38;;;;;;;6.07;4.97;;;30.30;58.80;;;;;;5005380;28;20559;-64
2021/07/20 11:02:38;;;;;;;6.80;5.47;;;30.40;58.70;;;;;;5004887;28;20549;-65
2021/07/20 11:05:08;;;;;;;10.40;5.72;;;30.40;58.70;;;;;;5003044;28;20084;-65
2021/07/20 11:07:54;;;;;;;7.68;5.53;;;30.40;58.50;;;;;;5016302;28;20038;-64
2021/07/20 11:10:43;;;;;;;6.97;5.55;;;30.40;58.80;;;;;;5013281;28;20041;-61
2021/07/20 11:13:14;;;;;;;5.53;5.00;;;30.50;58.50;;;;;;5008135;28;20052;-60
2021/07/20 11:15:43;;;;;;;7.88;5.60;;;30.50;58.40;;;;;;5011303;28;20516;-60
2021/07/20 11:18:13;;;;;;;6.85;5.60;;;30.50;58.40;;;;;;5004617;28;20037;-60
2021/07/20 11:20:41;;;;;;;9.52;5.75;;;30.50;58.40;;;;;;4989649;28;20049;-60
2021/07/20 11:23:08;;;;;;;8.13;6.00;;;30.50;58.40;;;;;;5009963;28;20048;-63
2021/07/20 11:25:37;;;;;;;6.78;5.20;;;30.50;58.40;;;;;;5002271;28;20029;-63
2021/07/20 11:28:03;;;;;;;7.35;5.75;;;30.50;58.50;;;;;;5010034;28;20030;-63
2021/07/20 11:30:33;;;;;;;7.68;5.25;;;30.50;58.50;;;;;;5015379;28;20485;-62
2021/07/20 11:33:15;;;;;;;6.75;5.75;;;30.50;58.50;;;;;;5014692;28;20100;-62
2021/07/20 11:35:44;;;;;;;7.13;6.15;;;30.50;58.90;;;;;;5012576;28;20470;-60
2021/07/20 11:38:13;;;;;;;8.02;5.57;;;30.50;59.10;;;;;;5017845;28;20041;-62
2021/07/20 11:41:04;;;;;;;6.85;6.15;;;30.40;58.70;;;;;;5021297;28;20394;-63
2021/07/20 11:43:50;;;;;;;7.13;5.80;;;30.40;58.80;;;;;;5016302;28;21098;-62
2021/07/20 11:46:56;;;;;;;6.93;5.88;;;30.40;59.10;;;;;;5011845;28;20044;-63
2021/07/20 11:49:31;;;;;;;7.05;5.70;;;30.40;59.40;;;;;;5012272;28;20072;-60
2021/07/20 11:52:03;;;;;;;8.80;6.10;;;30.30;59.40;;;;;;5017680;28;20017;-59
2021/07/20 11:54:53;;;;;;;7.25;6.13;;;30.30;59.40;;;;;;5013921;28;20409;-65
2021/07/20 11:57:24;;;;;;;;;;;30.40;59.40;;;;;;5017138;28;20064;-64
2021/07/20 12:00:23;;;;;;;5.88;5.03;;;30.30;59.70;;;;;;5015908;28;20007;-60
2021/07/20 12:03:15;;;;;;;6.95;5.45;;;30.40;59.80;;;;;;5014913;28;20038;-61
2021/07/20 12:05:52;;;;;;;7.18;6.10;;;30.40;59.50;;;;;;5013380;28;20069;-60
2021/07/20 12:08:39;;;;;;;8.60;6.28;;;30.40;59.60;;;;;;5010857;28;20033;-60
2021/07/20 12:11:22;;;;;;;7.63;6.30;;;30.50;59.80;;;;;;5008495;28;20402;-61
2021/07/20 12:13:49;;;;;;;9.10;6.40;;;30.50;59.60;;;;;;5012498;28;20128;-61
2021/07/20 12:16:16;;;;;;;7.25;5.85;;;30.50;59.40;;;;;;5008593;28;20079;-60
2021/07/20 12:18:54;;;;;;;6.55;5.75;;;30.60;59.20;;;;;;5007014;28;20038;-63
2021/07/20 12:21:23;;;;;;;7.82;5.63;;;30.70;59.30;;;;;;5007466;28;20083;-62
2021/07/20 12:23:54;;;;;;;7.07;5.85;;;30.70;59.30;;;;;;5008114;28;20075;-63
2021/07/20 12:26:21;;;;;;;8.98;5.80;;;30.80;59.20;;;;;;5018631;28;20045;-64
2021/07/20 12:28:49;;;;;;;6.93;5.63;;;30.80;58.90;;;;;;5013657;28;20028;-62
2021/07/20 12:31:15;;;;;;;6.93;5.82;;;30.80;58.70;;;;;;5011427;28;20240;-63
2021/07/20 12:33:45;;;;;;;8.02;6.05;;;30.80;58.80;;;;;;5010748;28;20033;-62
2021/07/20 12:36:12;;;;;;;8.48;5.88;;;30.80;58.30;;;;;;5010629;28;20480;-62
2021/07/20 12:38:39;;;;;;;8.27;6.00;;;30.80;58.20;;;;;;5015233;28;20033;-62
2021/07/20 12:41:09;;;;;;;8.40;5.93;;;30.80;58.20;;;;;;5015041;28;20038;-63
2021/07/20 12:43:38;;;;;;;7.00;6.20;;;30.80;58.30;;;;;;5010005;28;20033;-63
2021/07/20 12:46:15;;;;;;;7.07;5.77;;;30.90;58.40;;;;;;5011477;28;20053;-63
2021/07/20 12:48:51;;;;;;;6.43;5.38;;;30.80;58.20;;;;;;5012797;28;20034;-63
2021/07/20 12:51:20;;;;;;;7.40;5.75;;;30.80;58.00;;;;;;5018356;28;20480;-63
2021/07/20 12:53:50;;;;;;;9.25;6.07;;;30.90;58.10;;;;;;5019802;28;20113;-63
2021/07/20 12:56:34;;;;;;;8.07;5.37;;;30.90;58.40;;;;;;5013912;28;20650;-62
2021/07/20 12:59:07;;;;;;;6.72;5.68;;;30.90;58.20;;;;;;5002145;28;20290;-62
2021/07/20 13:01:35;;;;;;;7.60;5.65;;;30.90;58.10;;;;;;5007493;28;20037;-62
2021/07/20 13:04:02;;;;;;;7.10;5.20;;;30.90;58.10;;;;;;5008754;28;20041;-63
2021/07/20 13:06:37;;;;;;;9.38;5.45;;;30.90;57.80;;;;;;5009191;28;20045;-63
2021/07/20 13:09:04;;;;;;;8.38;5.65;;;30.90;57.60;;;;;;5007464;28;20033;-62